createdAt,value
2022-07-27T00:01:05.436Z,95863.84
2022-07-27T00:03:33.254Z,95833.31
2022-07-27T00:06:01.138Z,95866.06
2022-07-27T00:08:29.010Z,95856.44
2022-07-27T00:10:57.315Z,95860.69
2022-07-27T00:13:27.029Z,95848.06
2022-07-27T00:15:54.863Z,95857.63
2022-07-27T00:18:24.129Z,95841.56
2022-07-27T00:20:51.908Z,95860.50
2022-07-27T00:23:19.594Z,95834.31
2022-07-27T00:25:47.478Z,95846.78
2022-07-27T00:28:15.258Z,95839.63
2022-07-27T00:30:44.459Z,95858.38
2022-07-27T00:33:17.334Z,95831.91
2022-07-27T00:35:45.711Z,95825.19
2022-07-27T00:38:13.398Z,95836.44
2022-07-27T00:40:41.158Z,95843.00
2022-07-27T00:43:09.154Z,95843.91
2022-07-27T00:45:36.950Z,95839.56
2022-07-27T00:48:07.008Z,95840.13
2022-07-27T00:50:34.853Z,95830.56
2022-07-27T00:53:04.853Z,95825.78
2022-07-27T00:55:33.363Z,95848.06
2022-07-27T00:58:01.318Z,95828.38
2022-07-27T01:00:29.677Z,95820.06
2022-07-27T01:02:57.865Z,95824.56
2022-07-27T01:05:36.708Z,95829.72
2022-07-27T01:08:12.149Z,95821.22
2022-07-27T01:10:40.525Z,95811.03
2022-07-27T01:13:12.893Z,95824.53
2022-07-27T01:15:41.932Z,95822.06
2022-07-27T01:18:12.958Z,95812.72
2022-07-27T01:20:42.972Z,95818.06
2022-07-27T01:23:12.267Z,95795.75
2022-07-27T01:25:44.066Z,95797.88
2022-07-27T01:28:11.783Z,95798.06
2022-07-27T01:30:39.518Z,95804.75
2022-07-27T01:33:09.133Z,95795.41
2022-07-27T01:35:37.907Z,95796.72
2022-07-27T01:38:06.371Z,95799.34
2022-07-27T01:40:36.771Z,95779.06
2022-07-27T01:43:05.056Z,95795.16
2022-07-27T01:45:32.857Z,95787.22
2022-07-27T01:48:00.557Z,95782.66
2022-07-27T01:50:29.392Z,95793.19
2022-07-27T01:52:57.155Z,95755.69
2022-07-27T01:55:24.940Z,95766.69
2022-07-27T01:57:54.068Z,95766.88
2022-07-27T02:00:21.839Z,95746.34
2022-07-27T02:02:49.642Z,95755.03
2022-07-27T02:05:17.385Z,95774.84
2022-07-27T02:07:45.096Z,95755.22
2022-07-27T02:10:12.755Z,95763.88
2022-07-27T02:12:39.750Z,95771.50
2022-07-27T02:15:13.441Z,95770.09
2022-07-27T02:17:45.005Z,95775.56
2022-07-27T02:20:15.227Z,95778.09
2022-07-27T02:22:43.515Z,95781.56
2022-07-27T02:25:12.486Z,95761.59
2022-07-27T02:27:40.319Z,95788.50
2022-07-27T02:30:11.680Z,95800.22
2022-07-27T02:32:40.510Z,95779.91
2022-07-27T02:35:18.538Z,95802.53
2022-07-27T02:37:48.035Z,95806.75
2022-07-27T02:40:17.092Z,95807.34
2022-07-27T02:42:45.145Z,95805.28
2022-07-27T02:45:14.364Z,95798.84
2022-07-27T02:47:42.266Z,95804.09
2022-07-27T02:50:10.839Z,95792.84
2022-07-27T02:52:38.902Z,95795.00
2022-07-27T02:55:07.647Z,95796.69
2022-07-27T02:57:37.874Z,95804.94
2022-07-27T03:00:06.882Z,95806.47
2022-07-27T03:02:36.562Z,95790.75
2022-07-27T03:05:05.562Z,95803.63
2022-07-27T03:07:34.055Z,95801.03
2022-07-27T03:10:01.724Z,95809.19
2022-07-27T03:12:29.798Z,95814.66
2022-07-27T03:14:58.120Z,95813.72
2022-07-27T03:17:25.965Z,95809.66
2022-07-27T03:19:55.064Z,95792.47
2022-07-27T03:22:22.789Z,95811.69
2022-07-27T03:24:50.654Z,95801.72
2022-07-27T03:27:18.350Z,95809.41
2022-07-27T03:29:46.143Z,95797.66
2022-07-27T03:32:13.863Z,95814.66
2022-07-27T03:34:42.574Z,95821.88
2022-07-27T03:37:11.630Z,95814.84
2022-07-27T03:39:39.404Z,95817.63
2022-07-27T03:42:07.515Z,95817.63
2022-07-27T03:44:35.201Z,95813.88
2022-07-27T03:47:02.935Z,95787.34
2022-07-27T03:49:30.716Z,95788.69
2022-07-27T03:51:58.785Z,95798.66
2022-07-27T03:54:27.951Z,95800.25
2022-07-27T03:56:55.694Z,95798.84
2022-07-27T03:59:23.420Z,95778.84
2022-07-27T04:01:51.095Z,95800.69
2022-07-27T04:04:18.810Z,95768.94
2022-07-27T04:06:46.550Z,95791.91
2022-07-27T04:09:14.538Z,95797.88
2022-07-27T04:11:51.059Z,95774.94
2022-07-27T04:14:19.435Z,95792.88
2022-07-27T04:16:47.537Z,95785.81
2022-07-27T04:19:15.890Z,95770.56
2022-07-27T04:21:43.943Z,95786.75
2022-07-27T04:24:11.677Z,95776.31
2022-07-27T04:26:39.537Z,95787.22
2022-07-27T04:29:08.851Z,95783.31
2022-07-27T04:31:36.774Z,95789.09
2022-07-27T04:34:04.499Z,95790.97
2022-07-27T04:36:33.468Z,95797.72
2022-07-27T04:39:01.182Z,95791.28
2022-07-27T04:41:30.380Z,95782.16
2022-07-27T04:43:58.534Z,95793.03
2022-07-27T04:46:28.241Z,95781.38
2022-07-27T04:48:56.579Z,95799.78
2022-07-27T04:51:24.570Z,95795.22
2022-07-27T04:53:58.227Z,95783.31
2022-07-27T04:56:26.522Z,95798.16
2022-07-27T04:58:54.331Z,95799.38
2022-07-27T05:01:23.042Z,95808.84
2022-07-27T05:03:52.430Z,95810.53
2022-07-27T05:06:20.242Z,95786.41
2022-07-27T05:08:47.977Z,95796.41
2022-07-27T05:11:15.743Z,95790.53
2022-07-27T05:13:43.491Z,95803.75
2022-07-27T05:16:12.091Z,95816.63
2022-07-27T05:18:40.293Z,95800.38
2022-07-27T11:27:01.118Z,95857.16
2022-07-27T11:29:44.834Z,95856.50
2022-07-27T11:32:18.844Z,95858.19
2022-07-27T11:34:47.030Z,95848.84
2022-07-27T11:37:19.087Z,95852.72
2022-07-27T11:40:27.819Z,95843.72
2022-07-27T11:42:41.204Z,95845.38
2022-07-27T11:45:09.393Z,95846.56
2022-07-27T11:47:37.240Z,95846.41
2022-07-27T11:52:37.395Z,95840.84
2022-07-27T11:55:08.892Z,95842.53
2022-07-27T11:57:41.962Z,95829.84
2022-07-27T12:00:11.722Z,95836.03
2022-07-27T12:02:50.308Z,95832.22
2022-07-27T12:05:18.125Z,95830.75
2022-07-27T12:07:45.999Z,95836.50
2022-07-27T12:10:13.932Z,95832.16
2022-07-27T12:12:50.381Z,95830.47
2022-07-27T12:18:07.708Z,95827.25
2022-07-27T12:20:37.343Z,95824.94
2022-07-27T12:23:07.004Z,95832.22
2022-07-27T12:25:35.278Z,95821.91
2022-07-27T12:28:07.629Z,95824.34
2022-07-27T12:30:39.341Z,95828.25
2022-07-27T12:33:08.477Z,95831.94
2022-07-27T12:35:46.363Z,95835.72
2022-07-27T12:38:14.612Z,95838.31
2022-07-27T12:40:47.585Z,95833.34
2022-07-27T12:43:19.259Z,95827.50
2022-07-27T12:45:48.076Z,95828.63
2022-07-27T12:48:17.908Z,95832.03
2022-07-27T12:50:47.580Z,95825.41
2022-07-27T12:53:17.549Z,95834.72
2022-07-27T12:55:45.697Z,95822.50
2022-07-27T12:58:14.924Z,95812.22
2022-07-27T13:00:44.159Z,95824.09
2022-07-27T13:03:12.060Z,95824.47
2022-07-27T13:05:39.874Z,95819.88
2022-07-27T13:08:08.835Z,95824.47
2022-07-27T13:10:37.435Z,95815.41
2022-07-27T13:13:05.627Z,95827.78
2022-07-27T13:15:33.511Z,95819.84
2022-07-27T13:18:02.813Z,95803.22
2022-07-27T13:20:30.936Z,95817.91
2022-07-27T13:22:58.631Z,95827.16
2022-07-27T13:25:26.346Z,95824.06
2022-07-27T13:27:55.106Z,95828.38
2022-07-27T13:30:24.515Z,95826.50
2022-07-27T13:32:52.209Z,95817.75
2022-07-27T13:35:21.278Z,95813.91
2022-07-27T13:37:49.642Z,95821.25
2022-07-27T13:40:17.313Z,95801.09
2022-07-27T13:42:45.384Z,95801.03
2022-07-27T13:45:13.090Z,95817.25
2022-07-27T13:47:42.405Z,95812.44
2022-07-27T13:50:18.170Z,95820.53
2022-07-27T13:52:48.834Z,95808.47
2022-07-27T13:55:16.772Z,95817.53
2022-07-27T13:57:44.905Z,95805.28
2022-07-27T14:00:14.046Z,95807.91
2022-07-27T14:02:42.839Z,95805.53
2022-07-27T14:05:13.066Z,95806.34
2022-07-27T14:07:42.049Z,95806.63
2022-07-27T14:10:30.342Z,95810.06
2022-07-27T14:13:07.424Z,95805.03
2022-07-27T14:15:53.438Z,95815.41
2022-07-27T14:18:24.665Z,95815.69
2022-07-27T14:20:52.410Z,95810.66
2022-07-27T14:23:20.156Z,95796.38
2022-07-27T14:25:49.189Z,95808.88
2022-07-27T14:28:16.970Z,95807.78
2022-07-27T14:30:44.851Z,95794.44
2022-07-27T14:33:12.644Z,95792.56
2022-07-27T14:35:41.033Z,95801.09
2022-07-27T14:38:09.610Z,95797.19
2022-07-27T14:40:37.433Z,95795.63
2022-07-27T14:43:07.224Z,95802.31
2022-07-27T14:45:45.188Z,95800.00
2022-07-27T14:48:22.728Z,95786.50
2022-07-27T14:50:56.365Z,95781.50
2022-07-27T14:53:24.567Z,95790.88
2022-07-27T14:55:52.227Z,95785.53
2022-07-27T14:58:21.309Z,95776.97
2022-07-27T15:00:49.032Z,95794.47
2022-07-27T15:03:17.634Z,95788.72
2022-07-27T15:05:50.254Z,95798.75
2022-07-27T15:08:19.115Z,95777.56
2022-07-27T15:10:47.277Z,95771.38
2022-07-27T15:13:15.128Z,95788.72
2022-07-27T15:15:44.604Z,95789.78
2022-07-27T15:18:12.316Z,95786.19
2022-07-27T15:20:40.401Z,95776.00
2022-07-27T15:23:08.093Z,95782.56
2022-07-27T15:25:35.802Z,95789.81
2022-07-27T15:28:03.588Z,95790.94
2022-07-27T15:30:37.890Z,95786.25
2022-07-27T15:33:07.759Z,95778.44
2022-07-27T15:35:35.912Z,95785.41
2022-07-27T15:38:03.792Z,95787.28
2022-07-27T15:40:41.664Z,95774.25
2022-07-27T15:43:12.165Z,95785.09
2022-07-27T15:45:42.296Z,95758.78
2022-07-27T15:48:12.898Z,95777.34
2022-07-27T15:50:43.072Z,95775.41
2022-07-27T15:53:11.911Z,95762.63
2022-07-27T15:55:39.619Z,95776.56
2022-07-27T15:58:08.582Z,95776.50
2022-07-27T16:00:41.249Z,95774.19
2022-07-27T16:03:10.978Z,95763.38
2022-07-27T16:05:40.248Z,95781.81
2022-07-27T16:08:09.452Z,95772.97
2022-07-27T16:10:37.567Z,95779.47
2022-07-27T16:13:05.965Z,95769.88
2022-07-27T16:15:51.745Z,95771.47
2022-07-27T16:18:21.195Z,95771.88
2022-07-27T16:20:48.981Z,95767.22
2022-07-27T16:23:18.220Z,95767.63
2022-07-27T16:26:07.461Z,95763.41
2022-07-27T16:28:39.413Z,95766.44
2022-07-27T16:31:08.540Z,95764.78
2022-07-27T16:33:37.645Z,95756.75
2022-07-27T16:36:08.282Z,95758.69
2022-07-27T16:38:36.536Z,95756.41
2022-07-27T16:41:07.125Z,95759.50
2022-07-27T16:43:37.502Z,95757.19
2022-07-27T16:46:08.486Z,95762.97
2022-07-27T16:48:41.738Z,95760.72
2022-07-27T16:51:11.542Z,95761.09
2022-07-27T16:53:40.090Z,95759.09
2022-07-27T16:56:08.873Z,95757.97
2022-07-27T16:58:36.666Z,95764.16
2022-07-27T17:01:05.260Z,95759.84
2022-07-27T17:03:33.038Z,95770.94
2022-07-27T17:06:05.994Z,95770.19
2022-07-27T17:08:34.584Z,95762.00
2022-07-27T17:11:02.862Z,95763.53
2022-07-27T17:13:34.264Z,95766.22
2022-07-27T17:16:04.215Z,95772.31
2022-07-27T17:18:38.986Z,95766.13
2022-07-27T17:21:12.488Z,95759.53
2022-07-27T17:23:41.017Z,95763.03
2022-07-27T17:26:09.813Z,95767.63
2022-07-27T17:28:39.310Z,95769.22
2022-07-27T17:31:09.521Z,95770.72
2022-07-27T17:33:37.755Z,95769.13
2022-07-27T17:36:09.560Z,95770.63
2022-07-27T17:38:43.218Z,95780.16
2022-07-27T17:41:11.001Z,95766.47
2022-07-27T17:43:39.422Z,95783.81
2022-07-27T17:46:07.595Z,95754.78
2022-07-27T17:48:35.606Z,95776.38
2022-07-27T17:51:03.871Z,95764.63
2022-07-27T17:53:31.658Z,95757.56
2022-07-27T17:56:02.748Z,95765.16
2022-07-27T17:58:30.833Z,95763.91
2022-07-27T18:00:59.197Z,95795.13
2022-07-27T18:03:27.524Z,95788.50
2022-07-27T18:05:55.427Z,95788.09
2022-07-27T18:08:23.129Z,95786.75
2022-07-27T18:10:51.504Z,95796.78
2022-07-27T18:13:20.811Z,95779.28
2022-07-27T18:15:48.633Z,95789.28
2022-07-27T18:18:16.782Z,95798.06
2022-07-27T18:20:45.156Z,95787.00
2022-07-27T18:23:12.979Z,95794.00
2022-07-27T18:25:40.694Z,95797.47
2022-07-27T18:28:08.411Z,95796.66
2022-07-27T18:30:37.618Z,95798.38
2022-07-27T18:33:06.023Z,95774.63
2022-07-27T18:35:34.378Z,95803.13
2022-07-27T18:38:02.243Z,95791.06
2022-07-27T18:40:30.440Z,95786.56
2022-07-27T18:42:58.202Z,95784.47
2022-07-27T18:45:34.360Z,95810.31
2022-07-27T18:48:04.493Z,95804.88
2022-07-27T18:50:37.057Z,95798.03
2022-07-27T18:53:07.377Z,95810.75
2022-07-27T18:55:35.065Z,95814.56
2022-07-27T18:58:02.798Z,95818.75
2022-07-27T19:00:38.887Z,95818.75
2022-07-27T19:03:07.546Z,95826.44
2022-07-27T19:05:41.720Z,95825.66
2022-07-27T19:08:13.367Z,95834.06
2022-07-27T19:10:42.065Z,95843.34
2022-07-27T19:13:10.432Z,95838.22
2022-07-27T19:15:39.830Z,95847.97
2022-07-27T19:18:08.068Z,95849.25
2022-07-27T19:20:37.673Z,95850.03
2022-07-27T19:23:06.163Z,95849.88
2022-07-27T19:25:34.674Z,95860.97
2022-07-27T19:28:02.785Z,95854.19
2022-07-27T19:30:30.716Z,95862.31
2022-07-27T19:33:00.033Z,95874.88
2022-07-27T19:35:27.795Z,95873.00
2022-07-27T19:37:55.565Z,95875.75
2022-07-27T19:43:12.298Z,95881.63
2022-07-27T19:45:40.008Z,95887.28
2022-07-27T19:48:09.539Z,95882.97
2022-07-27T19:50:37.287Z,95884.28
2022-07-27T19:53:05.416Z,95896.94
2022-07-27T19:55:33.097Z,95898.66
2022-07-27T19:58:00.850Z,95900.75
2022-07-27T20:00:28.688Z,95895.72
2022-07-27T20:02:57.684Z,95895.63
2022-07-27T20:05:26.752Z,95895.22
2022-07-27T20:07:54.449Z,95892.41
2022-07-27T20:10:22.535Z,95897.97
2022-07-27T20:12:50.241Z,95877.13
2022-07-27T20:15:18.057Z,95900.38
2022-07-27T20:17:47.817Z,95900.28
2022-07-27T20:20:15.519Z,95903.09
2022-07-27T20:22:44.585Z,95911.66
2022-07-27T20:25:14.941Z,95911.16
2022-07-27T20:27:43.313Z,95917.66
2022-07-27T20:30:14.450Z,95906.22
2022-07-27T20:32:42.117Z,95909.41
2022-07-27T20:35:09.952Z,95910.03
2022-07-27T20:37:38.696Z,95908.22
2022-07-27T20:40:11.355Z,95901.13
2022-07-27T20:42:40.216Z,95895.25
2022-07-27T20:45:11.249Z,95918.25
2022-07-27T20:47:39.289Z,95914.44
2022-07-27T20:50:08.575Z,95914.00
2022-07-27T20:52:38.077Z,95914.28
2022-07-27T20:55:08.677Z,95908.53
2022-07-27T20:57:36.958Z,95916.41
2022-07-27T21:00:06.512Z,95922.19
2022-07-27T21:02:34.367Z,95931.50
2022-07-27T21:05:02.670Z,95927.59
2022-07-27T21:07:31.421Z,95912.75
2022-07-27T21:09:59.138Z,95935.34
2022-07-27T21:12:28.387Z,95932.38
2022-07-27T21:14:56.136Z,95934.16
2022-07-27T21:17:24.079Z,95922.19
2022-07-27T21:19:53.325Z,95934.56
2022-07-27T21:22:21.125Z,95930.16
2022-07-27T21:24:49.485Z,95935.50
2022-07-27T21:27:21.077Z,95925.75
2022-07-27T21:29:50.746Z,95938.44
2022-07-27T21:32:18.939Z,95937.91
2022-07-27T21:34:46.598Z,95938.00
2022-07-27T21:37:14.257Z,95923.28
2022-07-27T21:39:41.967Z,95923.28
2022-07-27T21:42:09.622Z,95917.06
2022-07-27T21:44:37.444Z,95933.09
2022-07-27T21:47:11.405Z,95926.19
2022-07-27T21:49:41.010Z,95930.53
2022-07-27T21:52:08.703Z,95929.63
2022-07-27T21:54:36.396Z,95924.19
2022-07-27T21:57:04.090Z,95923.41
2022-07-27T21:59:31.759Z,95922.16
2022-07-27T22:02:00.846Z,95920.94
2022-07-27T22:04:29.941Z,95914.50
2022-07-27T22:06:57.849Z,95934.88
2022-07-27T22:09:25.683Z,95924.28
2022-07-27T22:11:53.406Z,95923.81
2022-07-27T22:14:24.148Z,95916.47
2022-07-27T22:16:52.842Z,95929.28
2022-07-27T22:19:20.688Z,95929.19
2022-07-27T22:21:49.820Z,95924.47
2022-07-27T22:24:17.771Z,95929.06
2022-07-27T22:26:45.567Z,95933.59
2022-07-27T22:29:13.206Z,95933.47
2022-07-27T22:31:40.947Z,95934.91
2022-07-27T22:34:08.733Z,95932.38
2022-07-27T22:36:36.533Z,95917.03
2022-07-27T22:39:05.494Z,95933.34
2022-07-27T22:41:33.157Z,95938.84
2022-07-27T22:44:00.809Z,95921.56
2022-07-27T22:46:30.839Z,95942.59
2022-07-27T22:48:59.002Z,95939.47
2022-07-27T22:51:26.770Z,95931.00
2022-07-27T22:54:16.183Z,95927.44
2022-07-27T22:56:44.308Z,95923.63
2022-07-27T22:59:11.980Z,95924.28
2022-07-27T23:01:47.438Z,95919.78
2022-07-27T23:04:16.566Z,95921.47
2022-07-27T23:06:44.652Z,95930.31
2022-07-27T23:09:12.449Z,95901.88
2022-07-27T23:11:41.567Z,95915.22
2022-07-27T23:14:09.400Z,95922.53
2022-07-27T23:16:37.112Z,95913.16
2022-07-27T23:19:05.114Z,95923.06
2022-07-27T23:21:32.869Z,95926.81
2022-07-27T23:24:00.797Z,95919.00
2022-07-27T23:26:28.500Z,95916.69
2022-07-27T23:28:57.522Z,95913.88
2022-07-27T23:31:26.000Z,95908.25
2022-07-27T23:33:55.952Z,95892.19
2022-07-27T23:36:23.605Z,95904.75
2022-07-27T23:38:51.311Z,95916.03
2022-07-27T23:41:18.959Z,95913.53
2022-07-27T23:43:46.595Z,95911.97
2022-07-27T23:46:15.687Z,95910.41
2022-07-27T23:48:43.808Z,95906.03
2022-07-27T23:51:17.995Z,95894.03
2022-07-27T23:53:46.049Z,95904.50
2022-07-27T23:56:13.759Z,95913.34
2022-07-27T23:58:42.541Z,95914.13
